Time;durP1;ratioP1;P1;durP2;ratioP2;P2;SDS_P1;SDS_P2;PMS_P1;PMS_P2;Temp;Humidity;BMP_temperature;BMP_pressure;BME280_temperature;BME280_humidity;BME280_pressure;Samples;Min_cycle;Max_cycle;Signal;HPM_P1;HPM_P2
2021/11/26 00:02:07;;;;;;;;;;;;;;;1.99;68.98;99008.25;6154062;23;19920;-68
2021/11/26 00:04:33;;;;;;;;;;;;;;;2.00;69.29;99007.31;6154126;23;20316;-68
2021/11/26 00:06:59;;;;;;;;;;;;;;;1.98;68.63;99002.19;6153905;23;19921;-68
2021/11/26 00:09:24;;;;;;;;;;;;;;;1.94;69.37;98996.28;6154473;23;20366;-66
2021/11/26 00:11:50;;;;;;;;;;;;;;;1.86;69.67;99002.84;6129245;23;19920;-67
2021/11/26 00:14:19;;;;;;;;;;;;;;;1.85;69.66;98993.31;6155500;23;19956;-68
2021/11/26 00:16:47;;;;;;;;;;;;;;;1.78;69.68;98991.03;6156247;23;20371;-67
2021/11/26 00:19:13;;;;;;;;;;;;;;;1.80;69.76;98988.34;6129996;23;19924;-67
2021/11/26 00:21:39;;;;;;;;;;;;;;;1.77;70.31;98984.13;6130346;23;19995;-68
2021/11/26 00:24:06;;;;;;;;;;;;;;;1.78;70.62;98975.41;6155957;23;19929;-68
2021/11/26 00:26:32;;;;;;;;;;;;;;;1.80;70.37;98983.13;6156023;23;19955;-68
2021/11/26 00:28:57;;;;;;;;;;;;;;;1.75;70.51;98972.94;6155824;23;19921;-68
2021/11/26 00:31:23;;;;;;;;;;;;;;;1.74;70.71;98981.66;6155532;23;19928;-68
2021/11/26 00:33:48;;;;;;;;;;;;;;;1.74;70.62;98981.66;6157253;23;20264;-69
2021/11/26 00:36:14;;;;;;;;;;;;;;;1.83;70.35;98974.31;6156317;23;19921;-67
2021/11/26 00:38:40;;;;;;;;;;;;;;;1.82;70.41;98976.09;6156082;23;20011;-67
2021/11/26 00:41:05;;;;;;;;;;;;;;;1.81;70.11;98984.81;6156075;23;19920;-69
2021/11/26 00:43:31;;;;;;;;;;;;;;;1.80;70.33;98977.09;6155478;23;19921;-68
2021/11/26 00:45:57;;;;;;;;;;;;;;;1.71;70.46;98974.03;6155128;23;19926;-68
2021/11/26 00:48:23;;;;;;;;;;;;;;;1.73;70.05;98966.97;6155422;23;19935;-68
2021/11/26 00:50:49;;;;;;;;;;;;;;;1.72;70.15;98969.63;6129906;23;20015;-69
2021/11/26 00:53:15;;;;;;;;;;;;;;;1.68;70.67;98963.75;6129934;23;19927;-70
2021/11/26 00:55:41;;;;;;;;;;;;;;;1.74;70.50;98967.81;6156620;23;19921;-71
2021/11/26 00:58:07;;;;;;;;;;;;;;;1.73;70.62;98969.59;6156667;23;19927;-70
2021/11/26 01:00:33;;;;;;;;;;;;;;;1.74;70.40;98966.03;6129253;23;19952;-71
2021/11/26 01:02:58;;;;;;;;;;;;;;;1.72;70.04;98965.28;6155846;23;20407;-68
2021/11/26 01:05:24;;;;;;;;;;;;;;;1.71;70.46;98967.97;6155348;23;20387;-70
2021/11/26 01:07:50;;;;;;;;;;;;;;;1.76;70.25;98958.97;6155416;23;19971;-68
2021/11/26 01:10:17;;;;;;;;;;;;;;;1.72;70.43;98960.06;6128907;23;20291;-68
2021/11/26 01:12:42;;;;;;;;;;;;;;;1.74;70.47;98966.03;6155046;23;19931;-68
2021/11/26 01:15:09;;;;;;;;;;;;;;;1.68;69.96;98966.34;6154846;23;19920;-69
2021/11/26 01:17:37;;;;;;;;;;;;;;;1.70;70.35;98959.31;6154643;23;20272;-67
2021/11/26 01:20:04;;;;;;;;;;;;;;;1.66;70.23;98956.94;6154916;23;19932;-67
2021/11/26 01:22:30;;;;;;;;;;;;;;;1.64;70.08;98936.16;6155182;23;19928;-67
2021/11/26 01:24:56;;;;;;;;;;;;;;;1.65;70.17;98948.28;6155300;23;19924;-68
2021/11/26 01:27:21;;;;;;;;;;;;;;;1.69;70.26;98943.75;6154513;23;19920;-66
2021/11/26 01:29:47;;;;;;;;;;;;;;;1.74;70.10;98936.53;6155269;23;19928;-67
2021/11/26 01:32:12;;;;;;;;;;;;;;;1.73;70.27;98930.47;6155092;23;19932;-67
2021/11/26 01:34:38;;;;;;;;;;;;;;;1.69;69.97;98939.38;6155160;23;19927;-69
2021/11/26 01:37:04;;;;;;;;;;;;;;;1.65;69.97;98932.63;6155312;23;20303;-67
2021/11/26 01:39:29;;;;;;;;;;;;;;;1.70;70.26;98932.41;6154669;23;20010;-66
2021/11/26 01:41:55;;;;;;;;;;;;;;;1.75;69.75;98939.03;6155139;23;19924;-67
2021/11/26 01:44:21;;;;;;;;;;;;;;;1.73;69.96;98927.88;6154522;23;19920;-67
2021/11/26 01:46:46;;;;;;;;;;;;;;;1.76;69.69;98934.69;6128577;23;20359;-67
2021/11/26 01:49:12;;;;;;;;;;;;;;;1.73;69.19;98933.09;6154825;23;20277;-67
2021/11/26 01:51:38;;;;;;;;;;;;;;;1.75;69.46;98933.84;6154597;23;19924;-68
2021/11/26 01:54:04;;;;;;;;;;;;;;;1.73;69.19;98927.88;6155006;23;19999;-68
2021/11/26 01:56:30;;;;;;;;;;;;;;;1.71;69.53;98921.88;6155062;23;19956;-68
2021/11/26 01:58:56;;;;;;;;;;;;;;;1.74;69.19;98920.88;6154565;23;20248;-66
2021/11/26 02:01:22;;;;;;;;;;;;;;;1.70;69.64;98925.41;6153861;23;20007;-70
2021/11/26 02:03:48;;;;;;;;;;;;;;;1.73;69.78;98922.66;6153981;23;19999;-67
2021/11/26 02:06:13;;;;;;;;;;;;;;;1.71;69.56;98921.06;6153754;23;19920;-68
2021/11/26 02:08:39;;;;;;;;;;;;;;;1.71;69.59;98921.06;6155020;23;19956;-69
2021/11/26 02:11:05;;;;;;;;;;;;;;;1.73;68.88;98914.84;6154717;23;19940;-68
2021/11/26 02:13:31;;;;;;;;;;;;;;;1.75;68.67;98912.97;6154079;23;19927;-67
2021/11/26 02:15:59;;;;;;;;;;;;;;;1.76;68.62;98903.41;6154938;23;19920;-70
2021/11/26 02:18:25;;;;;;;;;;;;;;;1.71;68.64;98916.69;6154610;23;19955;-67
2021/11/26 02:20:50;;;;;;;;;;;;;;;1.73;68.98;98899.19;6154111;23;20403;-68
2021/11/26 02:23:16;;;;;;;;;;;;;;;1.77;68.60;98905.94;6154679;23;20407;-68
2021/11/26 02:25:42;;;;;;;;;;;;;;;1.72;68.85;98902.72;6154690;23;19927;-67
2021/11/26 02:28:09;;;;;;;;;;;;;;;1.72;68.74;98900.13;6128733;23;20360;-70
2021/11/26 02:30:34;;;;;;;;;;;;;;;1.66;68.52;98892.63;6154190;23;19951;-71
2021/11/26 02:33:02;;;;;;;;;;;;;;;1.69;68.66;98887.22;6154586;23;19947;-68
2021/11/26 02:35:27;;;;;;;;;;;;;;;1.69;68.57;98889.84;6154058;23;20003;-67
2021/11/26 02:37:54;;;;;;;;;;;;;;;1.63;68.35;98882.34;6154478;23;20008;-69
2021/11/26 02:40:23;;;;;;;;;;;;;;;1.63;68.17;98884.13;6154410;23;19928;-72
2021/11/26 02:42:50;;;;;;;;;;;;;;;1.66;68.57;98887.41;6154696;23;20296;-72
2021/11/26 02:45:16;;;;;;;;;;;;;;;1.66;68.39;98877.00;6154595;23;19920;-69
2021/11/26 02:47:42;;;;;;;;;;;;;;;1.63;68.35;98876.31;6155268;23;19927;-67
2021/11/26 02:50:09;;;;;;;;;;;;;;;1.64;68.29;98873.59;6154241;23;19921;-68
2021/11/26 02:52:35;;;;;;;;;;;;;;;1.63;68.36;98869.31;6154784;23;19921;-68
2021/11/26 02:55:01;;;;;;;;;;;;;;;1.65;67.56;98870.09;6154906;23;20257;-69
2021/11/26 02:57:26;;;;;;;;;;;;;;;1.64;67.29;98863.19;6128768;23;20264;-68
2021/11/26 02:59:52;;;;;;;;;;;;;;;1.56;67.57;98861.00;6154411;23;20069;-69
2021/11/26 03:02:17;;;;;;;;;;;;;;;1.60;67.67;98861.69;6154386;23;20291;-66
2021/11/26 03:04:43;;;;;;;;;;;;;;;1.65;67.78;98866.66;6154975;23;20388;-67
2021/11/26 03:07:09;;;;;;;;;;;;;;;1.66;67.48;98863.09;6154469;23;19928;-69
2021/11/26 03:09:35;;;;;;;;;;;;;;;1.64;67.79;98857.97;6154575;23;19928;-68
2021/11/26 03:12:01;;;;;;;;;;;;;;;1.65;67.44;98851.84;6154204;23;19927;-70
2021/11/26 03:14:27;;;;;;;;;;;;;;;1.65;66.96;98869.25;6153801;23;19921;-68
2021/11/26 03:16:52;;;;;;;;;;;;;;;1.64;67.38;98842.34;6154194;23;20003;-69
2021/11/26 03:19:18;;;;;;;;;;;;;;;1.61;67.36;98840.75;6153900;23;19921;-70
2021/11/26 03:21:44;;;;;;;;;;;;;;;1.61;67.28;98847.72;6154118;23;20418;-68
2021/11/26 03:24:09;;;;;;;;;;;;;;;1.54;66.86;98834.16;6128394;23;19920;-69
2021/11/26 03:26:35;;;;;;;;;;;;;;;1.57;66.92;98840.97;6153037;23;19947;-68
2021/11/26 03:29:01;;;;;;;;;;;;;;;1.63;66.66;98826.78;6153963;23;19921;-67
2021/11/26 03:31:27;;;;;;;;;;;;;;;1.53;67.29;98802.97;6152893;23;19920;-68
2021/11/26 03:33:52;;;;;;;;;;;;;;;1.58;66.64;98803.56;6154101;23;20336;-69
2021/11/26 03:36:18;;;;;;;;;;;;;;;1.59;66.66;98813.09;6153629;23;19983;-68
2021/11/26 03:38:43;;;;;;;;;;;;;;;1.55;67.01;98808.97;6153002;23;20438;-68
2021/11/26 03:41:11;;;;;;;;;;;;;;;1.53;66.53;98809.03;6153583;23;19939;-71
2021/11/26 03:43:36;;;;;;;;;;;;;;;1.56;66.98;98802.84;6152482;23;19921;-67
2021/11/26 03:46:02;;;;;;;;;;;;;;;1.56;67.12;98806.28;6126985;23;20479;-67
2021/11/26 03:48:28;;;;;;;;;;;;;;;1.52;67.21;98802.16;6155434;23;19968;-68
2021/11/26 03:50:53;;;;;;;;;;;;;;;1.57;66.59;98792.31;6155231;23;20332;-70
2021/11/26 03:53:19;;;;;;;;;;;;;;;1.52;66.91;98798.69;6154932;23;20022;-68
2021/11/26 03:55:45;;;;;;;;;;;;;;;1.58;66.47;98777.50;6156348;23;19991;-69
2021/11/26 03:58:10;;;;;;;;;;;;;;;1.60;66.76;98789.53;6155826;23;19926;-68
2021/11/26 04:00:36;;;;;;;;;;;;;;;1.58;66.48;98790.53;6155946;23;20336;-71
2021/11/26 04:03:02;;;;;;;;;;;;;;;1.52;66.73;98791.75;6156096;23;20049;-67
2021/11/26 04:05:27;;;;;;;;;;;;;;;1.54;67.08;98799.47;6155822;23;20007;-67
2021/11/26 04:07:53;;;;;;;;;;;;;;;1.53;66.33;98802.97;6156128;23;19921;-67
2021/11/26 04:10:19;;;;;;;;;;;;;;;1.45;66.52;98806.84;6155876;23;19927;-67
2021/11/26 04:12:46;;;;;;;;;;;;;;;1.43;66.98;98813.91;6155917;23;19927;-69
2021/11/26 04:15:13;;;;;;;;;;;;;;;1.48;66.84;98794.59;6156303;23;20372;-68
2021/11/26 04:17:39;;;;;;;;;;;;;;;1.45;66.88;98801.63;6130534;23;19928;-72
2021/11/26 04:20:05;;;;;;;;;;;;;;;1.43;66.32;98798.28;6156067;23;19920;-69
2021/11/26 04:22:31;;;;;;;;;;;;;;;1.44;66.99;98792.13;6155411;23;19943;-68
2021/11/26 04:24:57;;;;;;;;;;;;;;;1.34;67.22;98809.19;6155735;23;20336;-70
2021/11/26 04:27:22;;;;;;;;;;;;;;;1.38;66.71;98796.84;6155452;23;19928;-67
2021/11/26 04:29:48;;;;;;;;;;;;;;;1.41;66.23;98794.09;6156104;23;20348;-69
2021/11/26 04:32:14;;;;;;;;;;;;;;;1.41;66.35;98802.72;6156434;23;19921;-67
2021/11/26 04:34:39;;;;;;;;;;;;;;;1.40;65.98;98802.81;6129796;23;19927;-68
2021/11/26 04:37:05;;;;;;;;;;;;;;;1.38;65.74;98805.47;6129664;23;19920;-68
2021/11/26 04:39:31;;;;;;;;;;;;;;;1.41;65.71;98789.69;6155866;23;19924;-69
2021/11/26 04:41:56;;;;;;;;;;;;;;;1.39;65.88;98790.72;6129786;23;19921;-69
2021/11/26 04:44:22;;;;;;;;;;;;;;;1.42;65.84;98806.16;6155243;23;19924;-68
2021/11/26 04:46:48;;;;;;;;;;;;;;;1.36;65.29;98807.34;6129904;23;19927;-69
2021/11/26 04:49:13;;;;;;;;;;;;;;;1.37;65.35;98809.03;6154846;23;20011;-69
2021/11/26 04:51:39;;;;;;;;;;;;;;;1.38;65.50;98799.44;6155930;23;19920;-69
2021/11/26 04:54:05;;;;;;;;;;;;;;;1.42;65.95;98806.16;6130094;23;20427;-69
2021/11/26 04:56:31;;;;;;;;;;;;;;;1.41;65.48;98810.53;6156787;23;19950;-66
2021/11/26 04:58:57;;;;;;;;;;;;;;;1.40;65.46;98806.25;6157097;23;19921;-71
2021/11/26 05:01:22;;;;;;;;;;;;;;;1.38;65.15;98828.94;6155575;23;19924;-69
2021/11/26 05:03:48;;;;;;;;;;;;;;;1.45;65.35;98819.03;6128818;23;20011;-72
2021/11/26 05:06:13;;;;;;;;;;;;;;;1.45;64.82;98822.47;6155696;23;19975;-65
2021/11/26 05:08:39;;;;;;;;;;;;;;;1.47;65.23;98821.56;6155485;23;19920;-71
2021/11/26 05:11:05;;;;;;;;;;;;;;;1.44;65.57;98809.53;6154900;23;20218;-68
2021/11/26 05:13:32;;;;;;;;;;;;;;;1.46;65.00;98799.88;6153936;23;19927;-70
2021/11/26 05:15:59;;;;;;;;;;;;;;;1.46;65.51;98807.69;6154878;23;19928;-69
2021/11/26 05:18:26;;;;;;;;;;;;;;;1.45;65.53;98812.06;6154250;23;19921;-68
2021/11/26 05:20:52;;;;;;;;;;;;;;;1.51;65.32;98794.41;6154590;23;20457;-69
2021/11/26 05:23:18;;;;;;;;;;;;;;;1.47;64.93;98791.16;6154256;23;20008;-68
2021/11/26 05:25:44;;;;;;;;;;;;;;;1.53;64.78;98792.56;6154914;23;19952;-69
2021/11/26 05:28:09;;;;;;;;;;;;;;;1.53;65.32;98782.13;6104704;23;19920;-70
2021/11/26 05:30:35;;;;;;;;;;;;;;;1.49;65.20;98785.84;6154986;23;19967;-71
2021/11/26 05:33:01;;;;;;;;;;;;;;;1.48;64.75;98773.72;6155419;23;19967;-69
2021/11/26 05:35:27;;;;;;;;;;;;;;;1.58;64.66;98785.34;6155247;23;19920;-66
2021/11/26 05:37:53;;;;;;;;;;;;;;;1.58;64.87;98772.31;6155529;23;20320;-69
2021/11/26 05:40:19;;;;;;;;;;;;;;;1.60;64.87;98780.88;6156281;23;19920;-68
2021/11/26 05:42:45;;;;;;;;;;;;;;;1.55;64.97;98770.72;6129353;23;19921;-69
2021/11/26 05:45:11;;;;;;;;;;;;;;;1.56;65.23;98761.97;6155371;23;20371;-69
2021/11/26 05:47:37;;;;;;;;;;;;;;;1.56;64.91;98761.13;6154901;23;19927;-67
2021/11/26 05:50:05;;;;;;;;;;;;;;;1.58;64.91;98769.69;6155362;23;19925;-69
2021/11/26 05:52:30;;;;;;;;;;;;;;;1.60;65.52;98760.03;6129965;23;19928;-68
2021/11/26 05:54:56;;;;;;;;;;;;;;;1.54;65.53;98768.19;6156011;23;19920;-68
2021/11/26 05:57:21;;;;;;;;;;;;;;;1.59;65.18;98763.56;6128570;23;19971;-67
2021/11/26 05:59:47;;;;;;;;;;;;;;;1.56;65.80;98763.75;6155165;23;19921;-67
2021/11/26 06:02:13;;;;;;;;;;;;;;;1.61;65.92;98769.53;6155296;23;19930;-66
2021/11/26 06:04:38;;;;;;;;;;;;;;;1.54;65.85;98753.38;6155092;23;19920;-73
2021/11/26 06:07:04;;;;;;;;;;;;;;;1.63;66.06;98752.03;6155184;23;20348;-68
2021/11/26 06:09:30;;;;;;;;;;;;;;;1.63;65.37;98744.22;6128357;23;19920;-69
2021/11/26 06:11:55;;;;;;;;;;;;;;;1.65;65.34;98742.38;6155099;23;19920;-68
2021/11/26 06:14:21;;;;;;;;;;;;;;;1.57;65.98;98749.78;6154390;23;19921;-70
2021/11/26 06:16:47;;;;;;;;;;;;;;;1.58;66.07;98754.91;6154796;23;19920;-65
2021/11/26 06:19:12;;;;;;;;;;;;;;;1.62;65.99;98755.59;6155016;23;20008;-68
2021/11/26 06:21:38;;;;;;;;;;;;;;;1.62;65.93;98745.16;6154779;23;20296;-68
2021/11/26 06:24:04;;;;;;;;;;;;;;;1.68;65.37;98734.38;6155326;23;19920;-70
2021/11/26 06:26:29;;;;;;;;;;;;;;;1.68;65.87;98729.16;6155129;23;19927;-68
2021/11/26 06:28:55;;;;;;;;;;;;;;;1.63;65.98;98725.97;6154941;23;20317;-70
2021/11/26 06:31:20;;;;;;;;;;;;;;;1.67;65.93;98726.66;6156177;23;19936;-70
2021/11/26 06:33:46;;;;;;;;;;;;;;;1.71;65.92;98720.34;6156192;23;19920;-70
2021/11/26 06:36:12;;;;;;;;;;;;;;;1.74;65.70;98733.19;6156163;23;19991;-68
2021/11/26 06:38:37;;;;;;;;;;;;;;;1.73;65.77;98736.72;6154483;23;20335;-68
2021/11/26 06:41:03;;;;;;;;;;;;;;;1.69;65.22;98738.66;6130529;23;19929;-70
2021/11/26 06:43:29;;;;;;;;;;;;;;;1.73;65.84;98752.38;6154666;23;19920;-69
2021/11/26 06:45:55;;;;;;;;;;;;;;;1.71;65.90;98749.03;6155394;23;19927;-68
2021/11/26 06:48:21;;;;;;;;;;;;;;;1.66;65.34;98751.03;6128476;23;20308;-69
2021/11/26 06:50:46;;;;;;;;;;;;;;;1.66;66.03;98754.50;6129623;23;20008;-70
2021/11/26 06:53:18;;;;;;;;;;;;;;;1.77;65.67;98754.72;6128804;23;19921;-66
2021/11/26 06:55:44;;;;;;;;;;;;;;;1.77;65.56;98746.91;6099794;23;19925;-70
2021/11/26 06:58:10;;;;;;;;;;;;;;;1.74;66.02;98760.09;6125865;23;19920;-69
2021/11/26 07:00:36;;;;;;;;;;;;;;;1.76;65.74;98755.66;6124276;23;20345;-72
2021/11/26 07:03:01;;;;;;;;;;;;;;;1.85;65.83;98740.44;6125323;23;19921;-71
2021/11/26 07:05:27;;;;;;;;;;;;;;;1.84;65.83;98750.00;6125197;23;19921;-71
2021/11/26 07:07:53;;;;;;;;;;;;;;;1.85;65.79;98740.44;6124818;23;19924;-71
2021/11/26 07:10:18;;;;;;;;;;;;;;;1.89;65.29;98752.34;6124755;23;19928;-69
2021/11/26 07:12:44;;;;;;;;;;;;;;;1.90;65.92;98756.66;6123305;23;20407;-71
2021/11/26 07:15:10;;;;;;;;;;;;;;;1.91;65.59;98740.91;6123901;23;19949;-69
2021/11/26 07:17:36;;;;;;;;;;;;;;;1.93;65.48;98753.84;6125157;23;19929;-69
2021/11/26 07:20:03;;;;;;;;;;;;;;;1.98;65.77;98749.25;6124933;23;19920;-71
2021/11/26 07:22:29;;;;;;;;;;;;;;;2.01;65.57;98754.28;6124736;23;20312;-71
2021/11/26 07:24:55;;;;;;;;;;;;;;;2.03;65.37;98749.81;6123594;23;19956;-67
2021/11/26 07:27:20;;;;;;;;;;;;;;;2.03;65.40;98752.44;6125612;23;19951;-65
2021/11/26 07:29:46;;;;;;;;;;;;;;;2.00;65.14;98757.81;6124896;23;19921;-69
2021/11/26 07:32:12;;;;;;;;;;;;;;;1.98;65.24;98753.59;6124969;23;19994;-68
2021/11/26 07:34:40;;;;;;;;;;;;;;;2.03;65.47;98759.41;6124819;23;19921;-77
2021/11/26 07:37:09;;;;;;;;;;;;;;;2.04;65.22;98742.81;6124556;23;19925;-69
2021/11/26 07:39:36;;;;;;;;;;;;;;;2.05;65.82;98747.94;6124488;23;19952;-71
2021/11/26 07:42:03;;;;;;;;;;;;;;;2.04;65.33;98743.66;6125377;23;19928;-73
2021/11/26 07:44:30;;;;;;;;;;;;;;;2.04;65.40;98735.00;6125058;23;19955;-69
2021/11/26 07:46:56;;;;;;;;;;;;;;;2.06;65.06;98720.94;6124739;23;19924;-70
2021/11/26 07:49:24;;;;;;;;;;;;;;;2.12;65.21;98737.16;6124419;23;19921;-69
2021/11/26 07:51:49;;;;;;;;;;;;;;;2.15;65.05;98705.69;6124878;23;19971;-71
2021/11/26 07:54:15;;;;;;;;;;;;;;;2.15;65.41;98706.53;6124939;23;20004;-72
2021/11/26 07:56:41;;;;;;;;;;;;;;;2.18;65.24;98711.59;6150822;23;20244;-67
2021/11/26 07:59:07;;;;;;;;;;;;;;;2.19;64.86;98712.41;6154518;23;19921;-69
2021/11/26 08:01:32;;;;;;;;;;;;;;;2.24;64.87;98686.88;6154519;23;19931;-67
2021/11/26 08:03:58;;;;;;;;;;;;;;;2.33;65.03;98703.78;6154486;23;20244;-68
2021/11/26 08:06:24;;;;;;;;;;;;;;;2.33;64.81;98688.97;6153814;23;19999;-67
2021/11/26 08:08:49;;;;;;;;;;;;;;;2.39;64.61;98693.81;6104073;23;19921;-70
2021/11/26 08:11:15;;;;;;;;;;;;;;;2.36;64.83;98699.22;6154161;23;19995;-72
2021/11/26 08:13:41;;;;;;;;;;;;;;;2.40;64.84;98698.09;6153949;23;20344;-72
2021/11/26 08:16:08;;;;;;;;;;;;;;;2.36;64.60;98699.22;6154301;23;19940;-68
2021/11/26 08:18:34;;;;;;;;;;;;;;;2.40;64.82;98685.03;6154153;23;19928;-69
2021/11/26 08:21:00;;;;;;;;;;;;;;;2.45;64.58;98683.94;6154178;23;19925;-70
2021/11/26 08:23:26;;;;;;;;;;;;;;;2.37;64.49;98677.41;6128214;23;20337;-69
2021/11/26 08:25:52;;;;;;;;;;;;;;;2.46;64.46;98678.63;6154055;23;19975;-70
2021/11/26 08:28:18;;;;;;;;;;;;;;;2.38;64.83;98671.28;6154184;23;19920;-67
2021/11/26 08:30:43;;;;;;;;;;;;;;;2.40;64.75;98684.22;6153822;23;19925;-68
2021/11/26 08:33:10;;;;;;;;;;;;;;;2.43;64.59;98682.25;6155910;23;20351;-68
2021/11/26 08:35:35;;;;;;;;;;;;;;;2.42;64.81;98675.38;6156116;23;19952;-72
2021/11/26 08:38:01;;;;;;;;;;;;;;;2.42;64.52;98674.53;6155596;23;19920;-68
2021/11/26 08:40:27;;;;;;;;;;;;;;;2.41;64.92;98681.50;6130303;23;20350;-68
2021/11/26 08:42:53;;;;;;;;;;;;;;;2.43;64.82;98681.44;6156282;23;19925;-67
2021/11/26 08:45:19;;;;;;;;;;;;;;;2.43;64.95;98673.63;6157020;23;19925;-68
2021/11/26 08:47:45;;;;;;;;;;;;;;;2.43;64.65;98677.06;6156379;23;19927;-71
2021/11/26 08:50:14;;;;;;;;;;;;;;;2.48;65.00;98679.41;6129564;23;19920;-68
2021/11/26 08:52:41;;;;;;;;;;;;;;;2.51;65.11;98673.16;6129301;23;19920;-72
2021/11/26 08:55:11;;;;;;;;;;;;;;;2.49;65.04;98669.78;6124781;23;19996;-68
2021/11/26 08:57:38;;;;;;;;;;;;;;;2.40;65.03;98668.56;6126376;23;19995;-68
2021/11/26 09:00:04;;;;;;;;;;;;;;;2.42;64.96;98651.06;6125658;23;19967;-73
2021/11/26 09:02:38;;;;;;;;;;;;;;;2.37;64.87;98653.09;6126595;23;19921;-72
2021/11/26 09:05:04;;;;;;;;;;;;;;;2.38;65.19;98650.41;6124922;23;20260;-74
2021/11/26 09:07:35;;;;;;;;;;;;;;;2.39;64.86;98646.00;6101331;23;19956;-72
2021/11/26 09:10:01;;;;;;;;;;;;;;;2.38;65.43;98660.84;6125364;23;20375;-72
2021/11/26 09:12:30;;;;;;;;;;;;;;;2.37;65.12;98658.31;6126156;23;20003;-69
2021/11/26 09:14:56;;;;;;;;;;;;;;;2.39;65.15;98659.91;6126213;23;20263;-69
2021/11/26 09:17:24;;;;;;;;;;;;;;;2.38;65.23;98663.44;6126589;23;19921;-70
2021/11/26 09:19:49;;;;;;;;;;;;;;;2.33;65.53;98657.66;6126141;23;20276;-68
2021/11/26 09:22:15;;;;;;;;;;;;;;;2.37;65.66;98653.94;6124632;23;19921;-70
2021/11/26 09:24:41;;;;;;;;;;;;;;;2.44;65.30;98664.81;6126521;23;20000;-70
2021/11/26 09:27:06;;;;;;;;;;;;;;;2.45;65.59;98634.38;6124480;23;19921;-67
2021/11/26 09:29:32;;;;;;;;;;;;;;;2.43;65.52;98648.34;6124639;23;20363;-68
2021/11/26 09:31:58;;;;;;;;;;;;;;;2.38;65.48;98660.84;6126672;23;19921;-75
2021/11/26 09:34:23;;;;;;;;;;;;;;;2.37;66.07;98659.16;6100382;23;20011;-75
2021/11/26 09:36:49;;;;;;;;;;;;;;;2.36;65.84;98654.84;6126289;23;19927;-70
2021/11/26 09:39:14;;;;;;;;;;;;;;;2.28;66.34;98641.44;6126073;23;19921;-68
2021/11/26 09:41:40;;;;;;;;;;;;;;;2.24;66.61;98669.50;6124994;23;19982;-67
2021/11/26 09:44:07;;;;;;;;;;;;;;;2.28;66.54;98657.09;6126917;23;19967;-69
2021/11/26 09:46:37;;;;;;;;;;;;;;;2.31;66.52;98650.84;6126142;23;19940;-74
2021/11/26 09:49:03;;;;;;;;;;;;;;;2.32;66.98;98649.91;6101236;23;19983;-69
2021/11/26 09:51:29;;;;;;;;;;;;;;;2.37;66.72;98642.66;6126382;23;19921;-71
2021/11/26 09:53:55;;;;;;;;;;;;;;;2.36;67.02;98654.84;6123833;23;19943;-71
2021/11/26 09:56:21;;;;;;;;;;;;;;;2.36;67.25;98657.47;6124268;23;19928;-68
2021/11/26 09:58:46;;;;;;;;;;;;;;;2.35;66.79;98663.59;6125129;23;19921;-71
2021/11/26 10:01:12;;;;;;;;;;;;;;;2.36;66.93;98652.25;6125361;23;20004;-70
2021/11/26 10:03:42;;;;;;;;;;;;;;;2.41;67.31;98655.41;6125559;23;19921;-72
2021/11/26 10:06:23;;;;;;;;;;;;;;;2.39;67.26;98646.88;6124921;23;19921;-73
2021/11/26 10:08:56;;;;;;;;;;;;;;;2.33;67.24;98655.06;6125507;23;19927;-71
2021/11/26 10:11:25;;;;;;;;;;;;;;;2.33;67.42;98642.00;6125572;23;19921;-70
2021/11/26 10:13:51;;;;;;;;;;;;;;;2.33;67.45;98657.66;6124946;23;20407;-71
2021/11/26 10:16:16;;;;;;;;;;;;;;;2.35;67.47;98649.75;6125805;23;19925;-70
2021/11/26 10:18:46;;;;;;;;;;;;;;;2.33;67.82;98652.44;6125093;23;19928;-70
2021/11/26 10:21:12;;;;;;;;;;;;;;;2.33;67.74;98657.66;6124425;23;19921;-69
2021/11/26 10:23:40;;;;;;;;;;;;;;;2.34;67.76;98648.06;6125418;23;20003;-67
2021/11/26 10:26:16;;;;;;;;;;;;;;;2.32;67.86;98661.19;6123967;23;19921;-71
2021/11/26 10:28:59;;;;;;;;;;;;;;;2.27;67.92;98652.81;6123930;23;19920;-72
2021/11/26 10:31:35;;;;;;;;;;;;;;;2.33;67.74;98651.59;6123915;23;20016;-68
2021/11/26 10:34:02;;;;;;;;;;;;;;;2.33;67.77;98660.28;6125973;23;19928;-71
2021/11/26 10:36:28;;;;;;;;;;;;;;;2.33;67.56;98655.06;6099631;23;19945;-69
2021/11/26 10:38:57;;;;;;;;;;;;;;;2.34;67.72;98666.31;6124984;23;19975;-69
2021/11/26 10:41:35;;;;;;;;;;;;;;;2.27;67.86;98668.47;6125068;23;19921;-69
2021/11/26 10:44:08;;;;;;;;;;;;;;;2.33;67.76;98668.09;6125376;23;20016;-70
2021/11/26 10:49:32;;;;;;;;;;;;;;;2.33;67.88;98657.66;6124119;23;19921;-71
2021/11/26 10:52:08;;;;;;;;;;;;;;;2.40;67.86;98652.91;6124908;23;19921;-68
2021/11/26 11:00:06;;;;;;;;;;;;;;;2.40;67.75;98645.91;6154890;23;19975;-69
2021/11/26 11:02:35;;;;;;;;;;;;;;;2.44;67.48;98654.38;6155044;23;19920;-70
2021/11/26 11:05:00;;;;;;;;;;;;;;;2.37;67.52;98653.94;6128516;23;19920;-69
2021/11/26 11:07:35;;;;;;;;;;;;;;;2.36;68.04;98641.81;6154430;23;19940;-68
2021/11/26 11:10:01;;;;;;;;;;;;;;;2.39;67.94;98653.84;6154463;23;19936;-68
2021/11/26 11:12:30;;;;;;;;;;;;;;;2.39;67.70;98659.91;6128596;23;20379;-69
2021/11/26 11:14:58;;;;;;;;;;;;;;;2.45;67.49;98660.47;6128538;23;19920;-72
2021/11/26 11:17:44;;;;;;;;;;;;;;;2.48;67.54;98650.69;6154177;23;19930;-71
2021/11/26 11:20:12;;;;;;;;;;;;;;;2.43;67.25;98663.19;6104108;23;19920;-69
2021/11/26 11:22:38;;;;;;;;;;;;;;;2.44;67.27;98649.16;6128362;23;20340;-72
2021/11/26 11:25:05;;;;;;;;;;;;;;;2.46;67.45;98662.16;6128745;23;19931;-70
2021/11/26 11:27:30;;;;;;;;;;;;;;;2.49;67.24;98665.38;6104248;23;19928;-68
2021/11/26 11:29:56;;;;;;;;;;;;;;;2.43;67.36;98663.19;6128594;23;19921;-69
2021/11/26 11:32:24;;;;;;;;;;;;;;;2.45;67.31;98669.13;6128324;23;19952;-69
2021/11/26 11:34:49;;;;;;;;;;;;;;;2.44;67.45;98664.81;6154187;23;20403;-69
2021/11/26 11:37:18;;;;;;;;;;;;;;;2.42;67.39;98670.16;6128491;23;19921;-71
2021/11/26 11:39:45;;;;;;;;;;;;;;;2.49;66.83;98667.16;6128804;23;19924;-71
2021/11/26 11:42:11;;;;;;;;;;;;;;;2.50;66.97;98684.50;6154192;23;19943;-68
2021/11/26 11:44:37;;;;;;;;;;;;;;;2.47;67.13;98682.06;6128459;23;20316;-69
2021/11/26 11:47:24;;;;;;;;;;;;;;;2.57;66.72;98685.84;6153787;23;19920;-68
2021/11/26 11:49:50;;;;;;;;;;;;;;;2.49;66.59;98693.28;6154189;23;19928;-72
2021/11/26 11:52:16;;;;;;;;;;;;;;;2.47;67.00;98695.13;6154517;23;19921;-72
2021/11/26 11:54:43;;;;;;;;;;;;;;;2.49;67.01;98695.88;6154362;23;19947;-68
2021/11/26 11:57:20;;;;;;;;;;;;;;;2.42;66.96;98683.19;6154168;23;19920;-71
2021/11/26 11:59:45;;;;;;;;;;;;;;;2.52;66.81;98687.88;6154048;23;20059;-69
2021/11/26 12:02:21;;;;;;;;;;;;;;;2.50;66.58;98694.94;6154130;23;20364;-74
2021/11/26 12:04:48;;;;;;;;;;;;;;;2.47;66.99;98695.13;6154102;23;19920;-68
2021/11/26 12:07:25;;;;;;;;;;;;;;;2.50;66.81;98694.94;6154832;23;19925;-71
2021/11/26 12:10:00;;;;;;;;;;;;;;;2.55;66.78;98703.34;6156185;23;19927;-71
2021/11/26 12:12:25;;;;;;;;;;;;;;;2.50;66.87;98705.41;6156166;23;19921;-68
2021/11/26 12:14:52;;;;;;;;;;;;;;;2.52;67.02;98700.94;6129717;23;19977;-69
2021/11/26 12:17:24;;;;;;;;;;;;;;;2.55;66.97;98705.94;6155720;23;20252;-69
2021/11/26 12:19:57;;;;;;;;;;;;;;;2.49;66.85;98709.75;6155705;23;19921;-72
2021/11/26 12:22:30;;;;;;;;;;;;;;;2.53;66.81;98710.41;6105835;23;19924;-68
2021/11/26 12:24:57;;;;;;;;;;;;;;;2.54;66.98;98706.88;6156876;23;19975;-68
2021/11/26 12:27:25;;;;;;;;;;;;;;;2.55;67.01;98708.56;6155872;23;20230;-73
2021/11/26 12:29:52;;;;;;;;;;;;;;;2.56;66.92;98702.41;6155857;23;19983;-70
2021/11/26 12:32:28;;;;;;;;;;;;;;;2.56;67.06;98699.81;6081123;23;20639;-68
2021/11/26 12:35:03;;;;;;;;;;;;;;;2.55;67.07;98709.38;6129962;23;19929;-69
2021/11/26 12:37:31;;;;;;;;;;;;;;;2.52;66.91;98721.81;6156526;23;19925;-73
2021/11/26 12:39:57;;;;;;;;;;;;;;;2.46;67.22;98709.13;6155538;23;19921;-71
2021/11/26 12:42:23;;;;;;;;;;;;;;;2.52;67.25;98708.75;6155657;23;19927;-70
2021/11/26 12:44:55;;;;;;;;;;;;;;;2.56;66.99;98715.47;6155812;23;19999;-70
2021/11/26 12:47:33;;;;;;;;;;;;;;;2.51;67.25;98718.34;6129325;23;20014;-70
2021/11/26 12:52:25;;;;;;;;;;;;;;;2.49;67.25;98714.16;6129737;23;19920;-70
2021/11/26 12:54:51;;;;;;;;;;;;;;;2.45;67.34;98729.16;6155680;23;20348;-71
2021/11/26 12:57:19;;;;;;;;;;;;;;;2.49;67.09;98732.41;6081490;23;19956;-71
2021/11/26 12:59:47;;;;;;;;;;;;;;;2.40;67.71;98729.41;6155969;23;19920;-69
2021/11/26 13:02:24;;;;;;;;;;;;;;;2.43;67.45;98734.47;6155829;23;19924;-74
2021/11/26 13:04:52;;;;;;;;;;;;;;;2.43;67.71;98729.25;6155578;23;19921;-71
2021/11/26 13:07:21;;;;;;;;;;;;;;;2.49;67.28;98742.84;6129780;23;19920;-72